sensor_id;sensor_type;location;lat;lon;timestamp;pressure;altitude;pressure_sealevel;temperature;humidity
13478;BME280;12598;62.382;17.344;2023-02-28T00:00:28;102030.19;;;17.74;26.32
13478;BME280;12598;62.382;17.344;2023-02-28T00:01:30;101984.38;;;17.44;26.63
13478;BME280;12598;62.382;17.344;2023-02-28T00:02:33;101891.63;;;16.98;26.67
13478;BME280;12598;62.382;17.344;2023-02-28T00:03:35;102031.91;;;17.75;26.53
13478;BME280;12598;62.382;17.344;2023-02-28T00:04:37;102033.38;;;17.79;26.81
13478;BME280;12598;62.382;17.344;2023-02-28T00:05:39;101980.25;;;17.51;26.65
13478;BME280;12598;62.382;17.344;2023-02-28T00:06:40;101959.88;;;17.38;26.83
13478;BME280;12598;62.382;17.344;2023-02-28T00:07:43;101967.34;;;17.45;26.58
13478;BME280;12598;62.382;17.344;2023-02-28T00:08:45;101974.41;;;17.46;26.64
13478;BME280;12598;62.382;17.344;2023-02-28T00:09:47;102040.06;;;17.74;26.65
13478;BME280;12598;62.382;17.344;2023-02-28T00:10:49;102034.31;;;17.67;26.58
13478;BME280;12598;62.382;17.344;2023-02-28T00:11:51;102009.03;;;17.71;26.79
13478;BME280;12598;62.382;17.344;2023-02-28T00:12:54;101996.59;;;17.59;26.44
13478;BME280;12598;62.382;17.344;2023-02-28T00:13:58;102021.44;;;17.72;26.70
13478;BME280;12598;62.382;17.344;2023-02-28T00:15:01;102041.53;;;17.78;26.50
13478;BME280;12598;62.382;17.344;2023-02-28T00:16:09;101951.19;;;17.47;26.79
13478;BME280;12598;62.382;17.344;2023-02-28T00:17:11;102010.63;;;17.74;26.59
13478;BME280;12598;62.382;17.344;2023-02-28T00:18:13;101873.38;;;16.92;26.55
13478;BME280;12598;62.382;17.344;2023-02-28T00:19:15;101872.34;;;16.82;26.43
13478;BME280;12598;62.382;17.344;2023-02-28T00:20:17;102040.00;;;17.86;26.52
13478;BME280;12598;62.382;17.344;2023-02-28T00:21:19;102013.88;;;17.66;26.64
13478;BME280;12598;62.382;17.344;2023-02-28T00:22:22;101886.00;;;16.90;26.73
13478;BME280;12598;62.382;17.344;2023-02-28T00:23:25;102017.28;;;17.68;26.68
13478;BME280;12598;62.382;17.344;2023-02-28T00:24:27;102002.50;;;17.52;26.52
13478;BME280;12598;62.382;17.344;2023-02-28T00:25:29;101993.13;;;17.46;26.77
13478;BME280;12598;62.382;17.344;2023-02-28T00:26:31;101845.47;;;16.72;26.70
13478;BME280;12598;62.382;17.344;2023-02-28T00:27:34;102056.25;;;17.83;26.59
13478;BME280;12598;62.382;17.344;2023-02-28T00:28:38;102023.50;;;17.69;26.82
13478;BME280;12598;62.382;17.344;2023-02-28T00:29:40;101889.13;;;16.84;26.88
13478;BME280;12598;62.382;17.344;2023-02-28T00:30:44;102002.03;;;17.58;26.51
13478;BME280;12598;62.382;17.344;2023-02-28T00:31:46;101959.59;;;17.30;26.57
13478;BME280;12598;62.382;17.344;2023-02-28T00:32:50;101993.50;;;17.53;26.75
13478;BME280;12598;62.382;17.344;2023-02-28T00:33:52;101970.91;;;17.33;26.65
13478;BME280;12598;62.382;17.344;2023-02-28T00:34:55;101997.38;;;17.49;26.76
13478;BME280;12598;62.382;17.344;2023-02-28T00:36:05;102054.44;;;17.83;26.57
13478;BME280;12598;62.382;17.344;2023-02-28T00:37:10;102037.63;;;17.71;26.82
13478;BME280;12598;62.382;17.344;2023-02-28T00:38:15;102059.66;;;17.85;26.71
13478;BME280;12598;62.382;17.344;2023-02-28T00:39:17;102022.59;;;17.57;26.85
13478;BME280;12598;62.382;17.344;2023-02-28T00:40:19;101924.50;;;16.98;26.81
13478;BME280;12598;62.382;17.344;2023-02-28T00:41:21;101900.19;;;16.90;26.88
13478;BME280;12598;62.382;17.344;2023-02-28T00:42:23;102011.44;;;17.63;26.80
13478;BME280;12598;62.382;17.344;2023-02-28T00:43:25;101940.56;;;17.22;26.61
13478;BME280;12598;62.382;17.344;2023-02-28T00:44:28;102046.75;;;17.79;26.72
13478;BME280;12598;62.382;17.344;2023-02-28T00:45:30;101854.72;;;16.79;26.80
13478;BME280;12598;62.382;17.344;2023-02-28T00:46:32;102018.28;;;17.78;26.62
13478;BME280;12598;62.382;17.344;2023-02-28T00:47:34;101942.16;;;17.37;26.90
13478;BME280;12598;62.382;17.344;2023-02-28T00:48:36;101945.41;;;17.40;26.71
13478;BME280;12598;62.382;17.344;2023-02-28T00:49:38;101822.91;;;16.76;26.98
13478;BME280;12598;62.382;17.344;2023-02-28T00:50:40;102001.38;;;17.67;26.80
13478;BME280;12598;62.382;17.344;2023-02-28T00:51:42;102012.56;;;17.72;26.97
13478;BME280;12598;62.382;17.344;2023-02-28T00:52:44;101981.03;;;17.64;26.78
13478;BME280;12598;62.382;17.344;2023-02-28T00:53:48;101935.94;;;17.36;26.59
13478;BME280;12598;62.382;17.344;2023-02-28T00:54:51;101950.09;;;17.49;26.90
13478;BME280;12598;62.382;17.344;2023-02-28T00:55:52;101998.81;;;17.76;26.96
13478;BME280;12598;62.382;17.344;2023-02-28T00:56:55;102000.66;;;17.76;26.76
13478;BME280;12598;62.382;17.344;2023-02-28T00:57:56;101971.25;;;17.52;26.60
13478;BME280;12598;62.382;17.344;2023-02-28T00:58:59;101946.06;;;17.44;26.71
13478;BME280;12598;62.382;17.344;2023-02-28T01:00:01;101945.66;;;17.37;26.83
13478;BME280;12598;62.382;17.344;2023-02-28T01:01:03;101946.69;;;17.47;27.02
13478;BME280;12598;62.382;17.344;2023-02-28T01:02:06;101949.47;;;17.46;27.05
13478;BME280;12598;62.382;17.344;2023-02-28T01:03:07;101967.84;;;17.50;26.83
13478;BME280;12598;62.382;17.344;2023-02-28T01:04:10;101829.19;;;16.75;26.55
13478;BME280;12598;62.382;17.344;2023-02-28T01:05:12;101993.72;;;17.73;26.79
13478;BME280;12598;62.382;17.344;2023-02-28T01:06:14;101919.31;;;17.20;26.92
13478;BME280;12598;62.382;17.344;2023-02-28T01:07:16;101907.38;;;17.13;27.06
13478;BME280;12598;62.382;17.344;2023-02-28T01:08:18;101831.41;;;16.58;26.82
13478;BME280;12598;62.382;17.344;2023-02-28T01:09:21;101927.09;;;17.23;26.93
13478;BME280;12598;62.382;17.344;2023-02-28T01:10:23;102014.28;;;17.73;27.03
13478;BME280;12598;62.382;17.344;2023-02-28T01:11:24;101985.19;;;17.45;26.83
13478;BME280;12598;62.382;17.344;2023-02-28T01:12:27;101959.34;;;17.45;27.05
13478;BME280;12598;62.382;17.344;2023-02-28T01:13:31;101990.22;;;17.49;26.86
13478;BME280;12598;62.382;17.344;2023-02-28T01:14:33;101807.28;;;16.59;26.94
13478;BME280;12598;62.382;17.344;2023-02-28T01:15:36;102010.72;;;17.72;26.98
13478;BME280;12598;62.382;17.344;2023-02-28T01:16:39;102004.47;;;17.61;27.06
13478;BME280;12598;62.382;17.344;2023-02-28T01:17:40;101964.72;;;17.33;26.85
13478;BME280;12598;62.382;17.344;2023-02-28T01:18:43;102010.00;;;17.70;26.91
13478;BME280;12598;62.382;17.344;2023-02-28T01:19:45;101858.06;;;16.70;27.03
13478;BME280;12598;62.382;17.344;2023-02-28T01:20:48;101976.91;;;17.37;27.17
13478;BME280;12598;62.382;17.344;2023-02-28T01:21:50;101967.47;;;17.31;27.10
13478;BME280;12598;62.382;17.344;2023-02-28T01:22:52;101872.34;;;16.82;27.12
13478;BME280;12598;62.382;17.344;2023-02-28T01:23:56;101978.38;;;17.41;26.95
13478;BME280;12598;62.382;17.344;2023-02-28T01:24:59;101854.44;;;16.71;27.09
13478;BME280;12598;62.382;17.344;2023-02-28T01:26:09;101884.97;;;16.80;27.09
13478;BME280;12598;62.382;17.344;2023-02-28T01:27:13;101973.34;;;17.36;26.98
13478;BME280;12598;62.382;17.344;2023-02-28T01:28:16;101884.31;;;16.76;26.86
13478;BME280;12598;62.382;17.344;2023-02-28T01:29:18;102005.94;;;17.41;26.75
13478;BME280;12598;62.382;17.344;2023-02-28T01:30:20;101886.88;;;16.78;27.12
13478;BME280;12598;62.382;17.344;2023-02-28T01:31:22;101981.81;;;17.30;27.03
13478;BME280;12598;62.382;17.344;2023-02-28T01:32:24;101992.06;;;17.36;26.83
13478;BME280;12598;62.382;17.344;2023-02-28T01:33:26;101978.59;;;17.38;27.11
13478;BME280;12598;62.382;17.344;2023-02-28T01:34:28;101874.94;;;16.71;27.07
13478;BME280;12598;62.382;17.344;2023-02-28T01:35:35;101980.19;;;17.40;26.95
13478;BME280;12598;62.382;17.344;2023-02-28T01:36:37;101997.59;;;17.46;26.84
13478;BME280;12598;62.382;17.344;2023-02-28T01:37:39;101958.28;;;17.35;27.15
13478;BME280;12598;62.382;17.344;2023-02-28T01:38:42;101971.97;;;17.31;26.97
13478;BME280;12598;62.382;17.344;2023-02-28T01:39:44;101902.63;;;16.93;27.20
13478;BME280;12598;62.382;17.344;2023-02-28T01:40:46;102005.13;;;17.41;27.01
13478;BME280;12598;62.382;17.344;2023-02-28T01:41:48;101996.13;;;17.42;26.93
13478;BME280;12598;62.382;17.344;2023-02-28T01:42:50;101981.69;;;17.32;27.20
13478;BME280;12598;62.382;17.344;2023-02-28T01:43:54;102023.59;;;17.67;27.21
13478;BME280;12598;62.382;17.344;2023-02-28T01:46:17;102012.84;;;17.56;26.99
13478;BME280;12598;62.382;17.344;2023-02-28T01:47:22;102001.69;;;17.39;27.01
13478;BME280;12598;62.382;17.344;2023-02-28T01:48:30;102044.91;;;17.69;27.24
13478;BME280;12598;62.382;17.344;2023-02-28T01:49:32;102021.56;;;17.47;26.94
13478;BME280;12598;62.382;17.344;2023-02-28T01:50:38;101991.88;;;17.27;27.26
13478;BME280;12598;62.382;17.344;2023-02-28T01:51:44;101991.25;;;17.23;26.89
13478;BME280;12598;62.382;17.344;2023-02-28T01:52:48;102001.06;;;17.35;27.09
13478;BME280;12598;62.382;17.344;2023-02-28T01:53:55;101984.09;;;17.24;27.16
13478;BME280;12598;62.382;17.344;2023-02-28T01:55:01;101916.38;;;16.76;27.07
13478;BME280;12598;62.382;17.344;2023-02-28T01:56:06;102061.91;;;17.68;26.94
13478;BME280;12598;62.382;17.344;2023-02-28T01:57:14;101966.25;;;17.12;27.22
13478;BME280;12598;62.382;17.344;2023-02-28T01:58:18;102055.69;;;17.67;27.11
13478;BME280;12598;62.382;17.344;2023-02-28T01:59:45;102042.84;;;17.49;27.19
13478;BME280;12598;62.382;17.344;2023-02-28T02:00:50;102023.50;;;17.45;27.07
13478;BME280;12598;62.382;17.344;2023-02-28T02:01:53;102030.34;;;17.49;27.16
13478;BME280;12598;62.382;17.344;2023-02-28T02:03:01;102014.63;;;17.45;27.20
13478;BME280;12598;62.382;17.344;2023-02-28T02:04:06;102016.22;;;17.47;27.01
13478;BME280;12598;62.382;17.344;2023-02-28T02:05:25;102019.13;;;17.44;27.12
13478;BME280;12598;62.382;17.344;2023-02-28T02:06:32;102018.34;;;17.42;27.22
13478;BME280;12598;62.382;17.344;2023-02-28T02:07:38;101949.00;;;16.92;27.19
13478;BME280;12598;62.382;17.344;2023-02-28T02:08:41;102035.91;;;17.46;27.09
13478;BME280;12598;62.382;17.344;2023-02-28T02:09:43;101860.50;;;16.37;27.22
13478;BME280;12598;62.382;17.344;2023-02-28T02:11:00;102041.88;;;17.50;27.44
13478;BME280;12598;62.382;17.344;2023-02-28T02:12:14;102021.63;;;17.35;27.11
13478;BME280;12598;62.382;17.344;2023-02-28T02:15:16;102072.53;;;17.80;26.94
13478;BME280;12598;62.382;17.344;2023-02-28T02:20:12;102058.19;;;17.81;26.57
13478;BME280;12598;62.382;17.344;2023-02-28T02:21:20;102056.50;;;17.80;26.89
13478;BME280;12598;62.382;17.344;2023-02-28T02:22:36;102049.16;;;17.71;27.19
13478;BME280;12598;62.382;17.344;2023-02-28T02:35:27;102050.75;;;17.74;27.17
13478;BME280;12598;62.382;17.344;2023-02-28T02:36:35;102012.16;;;17.42;27.14
13478;BME280;12598;62.382;17.344;2023-02-28T02:40:57;102029.66;;;17.58;27.16
13478;BME280;12598;62.382;17.344;2023-02-28T02:42:01;102022.41;;;17.48;27.30
13478;BME280;12598;62.382;17.344;2023-02-28T02:43:15;102011.19;;;17.43;27.13
13478;BME280;12598;62.382;17.344;2023-02-28T02:44:25;102067.38;;;17.66;27.48
13478;BME280;12598;62.382;17.344;2023-02-28T02:45:52;102070.69;;;17.70;27.02
13478;BME280;12598;62.382;17.344;2023-02-28T02:47:08;102045.19;;;17.53;27.05
13478;BME280;12598;62.382;17.344;2023-02-28T02:48:13;102038.00;;;17.54;27.35
13478;BME280;12598;62.382;17.344;2023-02-28T02:49:22;101892.88;;;16.69;27.30
13478;BME280;12598;62.382;17.344;2023-02-28T02:50:30;102065.66;;;17.65;27.09
13478;BME280;12598;62.382;17.344;2023-02-28T02:51:35;102041.13;;;17.48;27.39
13478;BME280;12598;62.382;17.344;2023-02-28T02:52:42;102041.69;;;17.40;27.40
13478;BME280;12598;62.382;17.344;2023-02-28T02:53:49;102007.50;;;17.20;27.17
13478;BME280;12598;62.382;17.344;2023-02-28T02:54:55;102041.59;;;17.42;27.17
13478;BME280;12598;62.382;17.344;2023-02-28T02:56:00;102042.31;;;17.44;27.21
13478;BME280;12598;62.382;17.344;2023-02-28T02:57:08;102058.28;;;17.45;27.30
13478;BME280;12598;62.382;17.344;2023-02-28T02:58:14;102068.56;;;17.62;27.24
13478;BME280;12598;62.382;17.344;2023-02-28T02:59:21;102030.16;;;17.40;27.34
13478;BME280;12598;62.382;17.344;2023-02-28T03:00:34;102016.69;;;17.29;27.20
13478;BME280;12598;62.382;17.344;2023-02-28T03:01:40;102034.41;;;17.42;27.19
13478;BME280;12598;62.382;17.344;2023-02-28T03:02:44;101988.06;;;17.18;27.36
13478;BME280;12598;62.382;17.344;2023-02-28T03:03:47;102066.63;;;17.64;27.23
13478;BME280;12598;62.382;17.344;2023-02-28T03:04:54;102057.88;;;17.62;27.26
13478;BME280;12598;62.382;17.344;2023-02-28T03:06:02;102077.22;;;17.66;27.11
13478;BME280;12598;62.382;17.344;2023-02-28T03:07:06;102045.63;;;17.47;27.43
13478;BME280;12598;62.382;17.344;2023-02-28T03:08:07;101940.25;;;16.90;27.35
13478;BME280;12598;62.382;17.344;2023-02-28T03:09:09;102033.78;;;17.39;27.18
13478;BME280;12598;62.382;17.344;2023-02-28T03:10:34;102049.38;;;17.45;27.17
13478;BME280;12598;62.382;17.344;2023-02-28T03:11:37;102022.66;;;17.32;27.29
13478;BME280;12598;62.382;17.344;2023-02-28T03:12:47;102032.59;;;17.43;27.28
13478;BME280;12598;62.382;17.344;2023-02-28T03:15:20;102098.03;;;17.73;26.92
13478;BME280;12598;62.382;17.344;2023-02-28T03:18:57;101987.88;;;17.09;27.21
13478;BME280;12598;62.382;17.344;2023-02-28T03:26:21;102031.69;;;17.55;26.99
13478;BME280;12598;62.382;17.344;2023-02-28T03:27:29;102052.00;;;17.57;27.30
13478;BME280;12598;62.382;17.344;2023-02-28T03:29:47;101941.66;;;16.83;27.19
13478;BME280;12598;62.382;17.344;2023-02-28T03:31:00;102026.28;;;17.31;27.23
13478;BME280;12598;62.382;17.344;2023-02-28T03:33:21;101917.78;;;16.69;27.24
13478;BME280;12598;62.382;17.344;2023-02-28T03:34:33;102037.94;;;17.43;27.02
13478;BME280;12598;62.382;17.344;2023-02-28T03:35:45;102063.47;;;17.47;27.09
13478;BME280;12598;62.382;17.344;2023-02-28T03:36:57;102074.97;;;17.60;27.35
13478;BME280;12598;62.382;17.344;2023-02-28T03:39:34;102092.09;;;17.70;26.99
13478;BME280;12598;62.382;17.344;2023-02-28T03:40:39;102058.56;;;17.53;26.99
13478;BME280;12598;62.382;17.344;2023-02-28T03:41:48;102053.25;;;17.41;27.30
13478;BME280;12598;62.382;17.344;2023-02-28T03:42:56;102028.75;;;17.34;27.20
13478;BME280;12598;62.382;17.344;2023-02-28T03:44:08;102101.91;;;17.69;26.97
13478;BME280;12598;62.382;17.344;2023-02-28T03:45:23;102052.50;;;17.39;27.50
13478;BME280;12598;62.382;17.344;2023-02-28T03:46:28;102027.94;;;17.21;27.07
13478;BME280;12598;62.382;17.344;2023-02-28T03:47:40;102081.53;;;17.56;27.32
13478;BME280;12598;62.382;17.344;2023-02-28T03:48:50;102050.28;;;17.33;27.15
13478;BME280;12598;62.382;17.344;2023-02-28T03:49:54;102117.00;;;17.70;27.45
13478;BME280;12598;62.382;17.344;2023-02-28T03:51:00;101953.13;;;16.73;27.10
13478;BME280;12598;62.382;17.344;2023-02-28T03:52:06;102123.53;;;17.66;27.10
13478;BME280;12598;62.382;17.344;2023-02-28T03:54:15;102114.78;;;17.64;27.50
13478;BME280;12598;62.382;17.344;2023-02-28T03:55:20;102104.47;;;17.47;27.42
13478;BME280;12598;62.382;17.344;2023-02-28T03:56:36;102054.84;;;17.31;27.55
13478;BME280;12598;62.382;17.344;2023-02-28T03:59:05;101972.25;;;16.79;27.15
13478;BME280;12598;62.382;17.344;2023-02-28T04:00:12;102122.34;;;17.70;27.07
13478;BME280;12598;62.382;17.344;2023-02-28T04:01:23;102094.94;;;17.43;27.63
13478;BME280;12598;62.382;17.344;2023-02-28T04:02:27;102135.72;;;17.70;27.26
13478;BME280;12598;62.382;17.344;2023-02-28T04:03:29;102133.72;;;17.61;27.42
13478;BME280;12598;62.382;17.344;2023-02-28T04:04:31;102010.38;;;16.81;27.39
13478;BME280;12598;62.382;17.344;2023-02-28T04:05:53;102088.97;;;17.27;27.18
13478;BME280;12598;62.382;17.344;2023-02-28T04:07:05;102114.19;;;17.48;27.36
13478;BME280;12598;62.382;17.344;2023-02-28T04:08:08;102152.66;;;17.71;27.08
13478;BME280;12598;62.382;17.344;2023-02-28T04:09:12;102160.03;;;17.67;27.48
13478;BME280;12598;62.382;17.344;2023-02-28T04:10:13;102117.09;;;17.45;27.37
13478;BME280;12598;62.382;17.344;2023-02-28T04:11:34;102080.13;;;17.14;27.04
13478;BME280;12598;62.382;17.344;2023-02-28T04:12:37;102077.09;;;17.19;27.15
13478;BME280;12598;62.382;17.344;2023-02-28T04:13:38;102153.72;;;17.68;27.22
13478;BME280;12598;62.382;17.344;2023-02-28T04:14:40;102079.47;;;17.11;27.31
13478;BME280;12598;62.382;17.344;2023-02-28T04:15:42;102129.81;;;17.42;27.25
13478;BME280;12598;62.382;17.344;2023-02-28T04:16:44;102118.25;;;17.41;27.31
13478;BME280;12598;62.382;17.344;2023-02-28T04:17:46;102104.59;;;17.33;27.07
13478;BME280;12598;62.382;17.344;2023-02-28T04:18:48;102149.66;;;17.63;27.31
13478;BME280;12598;62.382;17.344;2023-02-28T04:19:50;102148.63;;;17.53;27.27
13478;BME280;12598;62.382;17.344;2023-02-28T04:20:52;102111.56;;;17.36;27.12
13478;BME280;12598;62.382;17.344;2023-02-28T04:21:54;102164.72;;;17.64;27.41
13478;BME280;12598;62.382;17.344;2023-02-28T04:22:55;102146.50;;;17.45;27.20
13478;BME280;12598;62.382;17.344;2023-02-28T04:23:57;102129.41;;;17.35;27.53
13478;BME280;12598;62.382;17.344;2023-02-28T04:25:02;102128.63;;;17.46;27.13
13478;BME280;12598;62.382;17.344;2023-02-28T04:26:04;102120.94;;;17.41;27.27
13478;BME280;12598;62.382;17.344;2023-02-28T04:27:08;102114.72;;;17.28;27.41
13478;BME280;12598;62.382;17.344;2023-02-28T04:28:10;102135.16;;;17.54;27.49
13478;BME280;12598;62.382;17.344;2023-02-28T04:29:17;102157.56;;;17.64;27.14
13478;BME280;12598;62.382;17.344;2023-02-28T04:30:19;102137.06;;;17.52;26.88
13478;BME280;12598;62.382;17.344;2023-02-28T04:31:21;102071.69;;;17.08;27.35
13478;BME280;12598;62.382;17.344;2023-02-28T04:32:23;102149.25;;;17.56;27.24
13478;BME280;12598;62.382;17.344;2023-02-28T04:33:26;102124.69;;;17.39;27.40
13478;BME280;12598;62.382;17.344;2023-02-28T04:34:30;102161.00;;;17.66;27.23
13478;BME280;12598;62.382;17.344;2023-02-28T04:35:33;102101.38;;;17.28;27.22
13478;BME280;12598;62.382;17.344;2023-02-28T04:36:34;102117.50;;;17.39;27.42
13478;BME280;12598;62.382;17.344;2023-02-28T04:37:36;102130.78;;;17.41;27.16
13478;BME280;12598;62.382;17.344;2023-02-28T04:38:38;102107.59;;;17.29;27.14
13478;BME280;12598;62.382;17.344;2023-02-28T04:39:41;102134.94;;;17.45;27.03
13478;BME280;12598;62.382;17.344;2023-02-28T04:40:43;102113.47;;;17.34;27.26
13478;BME280;12598;62.382;17.344;2023-02-28T04:41:46;102095.50;;;17.23;27.40
13478;BME280;12598;62.382;17.344;2023-02-28T04:42:48;102137.31;;;17.49;27.09
13478;BME280;12598;62.382;17.344;2023-02-28T04:43:52;102128.53;;;17.47;27.06
13478;BME280;12598;62.382;17.344;2023-02-28T04:44:54;102138.88;;;17.52;27.16
13478;BME280;12598;62.382;17.344;2023-02-28T04:45:57;102157.34;;;17.67;27.14
13478;BME280;12598;62.382;17.344;2023-02-28T04:47:00;102139.97;;;17.49;27.21
13478;BME280;12598;62.382;17.344;2023-02-28T04:48:02;102137.53;;;17.46;27.43
13478;BME280;12598;62.382;17.344;2023-02-28T04:49:04;102116.22;;;17.32;27.06
13478;BME280;12598;62.382;17.344;2023-02-28T04:50:06;102083.63;;;17.15;27.24
13478;BME280;12598;62.382;17.344;2023-02-28T04:51:12;102159.19;;;17.67;27.15
13478;BME280;12598;62.382;17.344;2023-02-28T04:52:14;102142.19;;;17.55;27.45
13478;BME280;12598;62.382;17.344;2023-02-28T04:53:16;102054.16;;;17.04;27.34
13478;BME280;12598;62.382;17.344;2023-02-28T04:54:18;102163.56;;;17.68;27.17
13478;BME280;12598;62.382;17.344;2023-02-28T04:55:20;102099.25;;;17.33;27.13
13478;BME280;12598;62.382;17.344;2023-02-28T04:56:22;102122.03;;;17.39;27.34
13478;BME280;12598;62.382;17.344;2023-02-28T04:57:24;102152.78;;;17.57;27.21
13478;BME280;12598;62.382;17.344;2023-02-28T04:58:26;102094.22;;;17.29;27.43
13478;BME280;12598;62.382;17.344;2023-02-28T04:59:29;102131.72;;;17.52;27.11
13478;BME280;12598;62.382;17.344;2023-02-28T05:00:31;102067.44;;;17.05;27.16
13478;BME280;12598;62.382;17.344;2023-02-28T05:01:34;102114.44;;;17.33;27.16
13478;BME280;12598;62.382;17.344;2023-02-28T05:02:38;102048.44;;;16.85;27.34
13478;BME280;12598;62.382;17.344;2023-02-28T05:03:41;102124.91;;;17.36;27.17
13478;BME280;12598;62.382;17.344;2023-02-28T05:04:43;102167.22;;;17.67;27.22
13478;BME280;12598;62.382;17.344;2023-02-28T05:05:46;102134.50;;;17.51;27.31
13478;BME280;12598;62.382;17.344;2023-02-28T05:06:48;102094.81;;;17.32;27.25
13478;BME280;12598;62.382;17.344;2023-02-28T05:07:50;102127.34;;;17.51;27.32
13478;BME280;12598;62.382;17.344;2023-02-28T05:08:52;102102.66;;;17.35;27.31
13478;BME280;12598;62.382;17.344;2023-02-28T05:09:54;102103.19;;;17.28;27.15
13478;BME280;12598;62.382;17.344;2023-02-28T05:10:56;102070.19;;;17.16;27.26
13478;BME280;12598;62.382;17.344;2023-02-28T05:11:58;102153.66;;;17.57;27.22
13478;BME280;12598;62.382;17.344;2023-02-28T05:13:00;102016.47;;;16.71;27.12
13478;BME280;12598;62.382;17.344;2023-02-28T05:14:03;102130.66;;;17.42;27.23
13478;BME280;12598;62.382;17.344;2023-02-28T05:15:06;102127.47;;;17.37;27.22
13478;BME280;12598;62.382;17.344;2023-02-28T05:16:08;102155.81;;;17.52;27.47
13478;BME280;12598;62.382;17.344;2023-02-28T05:17:10;102155.88;;;17.51;27.15
13478;BME280;12598;62.382;17.344;2023-02-28T05:18:12;102193.97;;;17.67;27.02
13478;BME280;12598;62.382;17.344;2023-02-28T05:19:13;102158.25;;;17.43;27.24
13478;BME280;12598;62.382;17.344;2023-02-28T05:20:15;102177.41;;;17.49;27.03
13478;BME280;12598;62.382;17.344;2023-02-28T05:21:32;102174.63;;;17.51;27.22
13478;BME280;12598;62.382;17.344;2023-02-28T05:22:34;102202.59;;;17.70;27.11
13478;BME280;12598;62.382;17.344;2023-02-28T05:23:37;102207.97;;;17.70;27.06
13478;BME280;12598;62.382;17.344;2023-02-28T05:24:38;102206.25;;;17.69;27.20
13478;BME280;12598;62.382;17.344;2023-02-28T05:25:41;102190.88;;;17.60;27.32
13478;BME280;12598;62.382;17.344;2023-02-28T05:26:43;102023.75;;;16.56;27.17
13478;BME280;12598;62.382;17.344;2023-02-28T05:27:45;102200.16;;;17.67;27.52
13478;BME280;12598;62.382;17.344;2023-02-28T05:28:47;102123.19;;;17.22;27.34
13478;BME280;12598;62.382;17.344;2023-02-28T05:29:49;102180.84;;;17.51;27.26
13478;BME280;12598;62.382;17.344;2023-02-28T05:30:51;102174.28;;;17.55;27.20
13478;BME280;12598;62.382;17.344;2023-02-28T05:31:53;102165.75;;;17.50;27.20
13478;BME280;12598;62.382;17.344;2023-02-28T05:32:55;102190.31;;;17.68;27.35
13478;BME280;12598;62.382;17.344;2023-02-28T05:33:57;102016.81;;;16.66;27.22
13478;BME280;12598;62.382;17.344;2023-02-28T05:34:59;102127.69;;;17.34;27.25
13478;BME280;12598;62.382;17.344;2023-02-28T05:36:00;102157.28;;;17.56;27.13
13478;BME280;12598;62.382;17.344;2023-02-28T05:37:03;102069.97;;;17.07;27.34
13478;BME280;12598;62.382;17.344;2023-02-28T05:38:05;102116.16;;;17.34;27.18
13478;BME280;12598;62.382;17.344;2023-02-28T05:39:07;102062.59;;;17.10;27.31
13478;BME280;12598;62.382;17.344;2023-02-28T05:40:14;102127.25;;;17.40;27.18
13478;BME280;12598;62.382;17.344;2023-02-28T05:41:18;102117.50;;;17.39;27.36
13478;BME280;12598;62.382;17.344;2023-02-28T05:42:21;102138.25;;;17.48;27.23
13478;BME280;12598;62.382;17.344;2023-02-28T05:43:23;102122.09;;;17.50;27.09
13478;BME280;12598;62.382;17.344;2023-02-28T05:44:24;102031.09;;;16.90;27.13
13478;BME280;12598;62.382;17.344;2023-02-28T05:45:26;101994.16;;;16.72;27.36
13478;BME280;12598;62.382;17.344;2023-02-28T05:46:28;102033.91;;;16.76;27.08
13478;BME280;12598;62.382;17.344;2023-02-28T05:47:31;102122.03;;;17.39;27.33
13478;BME280;12598;62.382;17.344;2023-02-28T05:48:34;102151.41;;;17.51;27.46
13478;BME280;12598;62.382;17.344;2023-02-28T05:49:36;102134.28;;;17.41;27.57
13478;BME280;12598;62.382;17.344;2023-02-28T05:50:38;102095.50;;;17.23;27.07
13478;BME280;12598;62.382;17.344;2023-02-28T05:51:40;102184.09;;;17.67;27.43
13478;BME280;12598;62.382;17.344;2023-02-28T05:52:42;102050.88;;;16.88;27.14
13478;BME280;12598;62.382;17.344;2023-02-28T05:53:44;102190.31;;;17.68;27.67
13478;BME280;12598;62.382;17.344;2023-02-28T05:54:46;102069.97;;;16.94;27.24
13478;BME280;12598;62.382;17.344;2023-02-28T05:55:48;102151.31;;;17.40;27.30
13478;BME280;12598;62.382;17.344;2023-02-28T05:56:50;102171.84;;;17.52;27.54
13478;BME280;12598;62.382;17.344;2023-02-28T05:57:52;102146.09;;;17.39;27.31
13478;BME280;12598;62.382;17.344;2023-02-28T05:58:54;102132.47;;;17.29;27.00
13478;BME280;12598;62.382;17.344;2023-02-28T05:59:56;102119.09;;;17.29;27.24
13478;BME280;12598;62.382;17.344;2023-02-28T06:00:59;102145.97;;;17.40;27.53
13478;BME280;12598;62.382;17.344;2023-02-28T06:02:01;102145.13;;;17.40;27.41
13478;BME280;12598;62.382;17.344;2023-02-28T06:03:03;102171.84;;;17.52;27.47
13478;BME280;12598;62.382;17.344;2023-02-28T06:04:08;102171.50;;;17.57;27.45
13478;BME280;12598;62.382;17.344;2023-02-28T06:05:23;102113.16;;;17.26;27.34
13478;BME280;12598;62.382;17.344;2023-02-28T06:06:25;102150.16;;;17.44;27.42
13478;BME280;12598;62.382;17.344;2023-02-28T06:07:27;102103.84;;;17.19;27.49
13478;BME280;12598;62.382;17.344;2023-02-28T06:08:29;102140.38;;;17.43;27.45
13478;BME280;12598;62.382;17.344;2023-02-28T06:09:30;102180.91;;;17.62;27.32
13478;BME280;12598;62.382;17.344;2023-02-28T06:10:34;102186.47;;;17.59;27.45